KENL/ENL METAR and TAF weather

Enter ICAO airport designator
Station Type Date Time Source
KENL METAR 2021/05/14 23:15 UTC NOAA

KENL 142315Z AUTO 15006KT 10SM CLR 21/03 A3023 RMK AO2 T02080026


Station Type Date Time Source
KENL Decoded METAR 2021/05/14 23:15 UTC NOAA

Centralia, Centralia Municipal Airport, IL, United States (KENL) 38-30-53N 089-05-32W
May 14, 2021 - 07:15 PM EDT / 2021.05.14 2315 UTC
Wind: from the SSE (150 degrees) at 7 MPH (6 KT):0
Visibility: 10 mile(s):0
Sky conditions: clear
Temperature: 69.4 F (20.8 C)
Dew Point: 36.7 F (2.6 C)
Relative Humidity: 29%
Pressure (altimeter): 30.23 in. Hg (1023 hPa)
ob: KENL 142315Z AUTO 15006KT 10SM CLR 21/03 A3023 RMK AO2 T02080026
cycle: 23

Station Type Date Time Source
KENL TAF UTC NOAA

Error!

Example: see airport list